createdAt,value
2018-04-28T00:02:35.308Z,15.93
2018-04-28T00:17:35.726Z,17.33
2018-04-28T00:32:34.620Z,16.03
2018-04-28T00:47:34.512Z,21.77
2018-04-28T01:02:33.255Z,15.83
2018-04-28T01:17:34.872Z,25.73
2018-04-28T01:32:56.586Z,29.27
2018-04-28T01:47:56.531Z,29.07
2018-04-28T02:02:37.597Z,29.70
2018-04-28T02:17:43.080Z,29.97
2018-04-28T02:32:40.843Z,28.10
2018-04-28T02:47:38.792Z,30.40
2018-04-28T03:02:45.654Z,25.70
2018-04-28T03:17:38.553Z,23.20
2018-04-28T03:32:48.052Z,23.73
2018-04-28T03:47:36.318Z,23.80
2018-04-28T04:02:46.244Z,22.47
2018-04-28T04:17:59.304Z,20.67
2018-04-28T04:32:34.837Z,23.83
2018-04-28T04:47:55.287Z,18.77
2018-04-28T05:02:47.410Z,16.43
2018-04-28T05:17:35.291Z,15.43
2018-04-28T05:32:48.107Z,14.50
2018-04-28T05:47:43.398Z,14.27
2018-04-28T06:17:46.180Z,13.83
2018-04-28T06:32:44.942Z,13.43
2018-04-28T06:47:34.374Z,14.03
2018-04-28T07:02:34.406Z,12.83
2018-04-28T07:17:40.816Z,13.50
2018-04-28T07:32:36.759Z,15.03
2018-04-28T07:47:34.677Z,14.53
2018-04-28T08:02:34.650Z,15.77
2018-04-28T08:17:35.090Z,14.07
2018-04-28T08:32:38.139Z,15.90
2018-04-28T08:47:34.953Z,18.40
2018-04-28T09:02:34.455Z,17.70
2018-04-28T09:17:34.334Z,19.47
2018-04-28T09:32:34.310Z,17.90
2018-04-28T09:47:34.353Z,18.53
2018-04-28T10:02:34.391Z,19.03
2018-04-28T10:17:34.778Z,18.33
2018-04-28T10:32:34.731Z,18.77
2018-04-28T10:47:34.703Z,19.67
2018-04-28T11:02:34.655Z,19.00
2018-04-28T11:17:35.064Z,19.10
2018-04-28T11:32:34.579Z,17.93
2018-04-28T11:47:36.897Z,17.10
2018-04-28T12:02:34.942Z,16.83
2018-04-28T12:17:34.418Z,17.60
2018-04-28T12:32:34.241Z,16.07
2018-04-28T12:47:33.790Z,15.73
2018-04-28T13:02:34.339Z,16.03
2018-04-28T13:17:34.698Z,16.60
2018-04-28T13:32:34.604Z,13.60
2018-04-28T13:47:34.671Z,12.63
2018-04-28T14:02:34.630Z,16.60
2018-04-28T14:17:38.904Z,17.20
2018-04-28T14:32:34.442Z,17.47
2018-04-28T14:47:35.390Z,15.80
2018-04-28T15:02:34.890Z,16.80
2018-04-28T15:17:35.216Z,20.30
2018-04-28T15:32:35.111Z,21.63
2018-04-28T15:47:35.195Z,21.70
2018-04-28T16:02:34.069Z,21.07
2018-04-28T16:17:36.390Z,20.40
2018-04-28T16:32:36.406Z,24.83
2018-04-28T16:47:34.485Z,18.40
2018-04-28T17:02:34.497Z,16.47
2018-04-28T17:17:46.682Z,19.43
2018-04-28T17:32:35.230Z,19.50
2018-04-28T17:47:34.872Z,17.23
2018-04-28T18:02:34.823Z,33.27
2018-04-28T18:17:35.181Z,18.53
2018-04-28T18:32:35.126Z,17.90
2018-04-28T18:47:37.617Z,16.97
2018-04-28T19:02:35.070Z,13.60
2018-04-28T19:17:35.651Z,14.93
2018-04-28T19:32:34.371Z,16.90
2018-04-28T19:47:34.373Z,14.97
2018-04-28T20:02:36.713Z,14.60
2018-04-28T20:17:34.775Z,16.30
2018-04-28T20:32:34.803Z,19.87
2018-04-28T20:47:36.803Z,15.17
2018-04-28T21:02:34.842Z,16.30
2018-04-28T21:17:35.254Z,18.13
2018-04-28T21:32:35.133Z,15.67
2018-04-28T21:47:35.089Z,14.80
2018-04-28T22:02:35.258Z,15.13
2018-04-28T22:17:34.500Z,16.30
2018-04-28T22:32:34.727Z,15.70
2018-04-28T22:47:34.390Z,15.10
2018-04-28T23:02:36.587Z,16.03
2018-04-28T23:17:34.812Z,16.60
2018-04-28T23:32:34.697Z,20.63
2018-04-28T23:47:34.658Z,19.27
